Time;durP1;ratioP1;P1;durP2;ratioP2;P2;SDS_P1;SDS_P2;PMS_P1;PMS_P2;Temp;Humidity;BMP_temperature;BMP_pressure;BME280_temperature;BME280_humidity;BME280_pressure;Samples;Min_cycle;Max_cycle;Signal;HPM_P1;HPM_P2
2022/03/06 00:01:15;;;;;;;4.70;4.30;;;15.70;44.20;16.70;101425.00;;;;5026682;28;20679;-46
2022/03/06 00:03:42;;;;;;;5.20;4.70;;;15.70;44.30;16.70;101430.00;;;;5010204;28;20202;-46
2022/03/06 00:06:07;;;;;;;4.77;4.37;;;15.70;44.30;16.60;101433.00;;;;5027638;28;20179;-45
2022/03/06 00:08:33;;;;;;;5.30;4.80;;;15.70;44.40;16.60;101426.00;;;;5027911;28;20687;-46
2022/03/06 00:10:59;;;;;;;5.53;4.70;;;15.60;44.40;16.60;101431.00;;;;5027467;28;20171;-45
2022/03/06 00:13:24;;;;;;;4.63;4.23;;;15.60;44.40;16.60;101431.00;;;;5026421;28;20210;-46
2022/03/06 00:15:50;;;;;;;5.10;4.60;;;15.60;44.40;16.50;101431.00;;;;5027256;28;20174;-45
2022/03/06 00:18:16;;;;;;;4.83;4.43;;;15.60;44.40;16.50;101429.00;;;;5026913;28;20175;-47
2022/03/06 00:20:42;;;;;;;6.13;4.90;;;15.60;44.40;16.50;101425.00;;;;5027341;28;20179;-46
2022/03/06 00:23:08;;;;;;;5.00;4.60;;;15.50;44.30;16.20;101426.00;;;;5027414;28;20189;-45
2022/03/06 00:25:34;;;;;;;4.80;4.40;;;15.50;44.40;16.50;101412.00;;;;5027751;28;20163;-47
2022/03/06 00:28:00;;;;;;;5.13;4.67;;;15.50;44.40;16.50;101418.00;;;;5027685;28;20233;-44
2022/03/06 00:30:26;;;;;;;5.17;4.67;;;15.50;44.40;16.40;101424.00;;;;5027953;28;20229;-45
2022/03/06 00:32:51;;;;;;;5.07;4.57;;;15.50;44.40;16.40;101423.00;;;;5026990;28;20175;-45
2022/03/06 00:35:17;;;;;;;4.80;4.40;;;15.40;44.30;16.40;101423.00;;;;5027154;28;20203;-45
2022/03/06 00:37:43;;;;;;;4.60;4.20;;;15.40;44.20;16.40;101426.00;;;;5027085;28;20648;-44
2022/03/06 00:40:09;;;;;;;5.07;4.67;;;15.30;44.10;16.40;101428.00;;;;5028082;28;20258;-45
2022/03/06 00:42:35;;;;;;;5.00;4.50;;;15.30;44.30;16.40;101425.00;;;;5027636;28;20475;-45
2022/03/06 00:45:01;;;;;;;4.80;4.40;;;15.30;44.30;16.40;101422.00;;;;5026851;28;20723;-45
2022/03/06 00:47:27;;;;;;;4.87;4.47;;;15.30;44.30;16.40;101424.00;;;;5027673;28;20640;-44
2022/03/06 00:49:52;;;;;;;5.03;4.63;;;15.30;44.40;16.40;101423.00;;;;5028629;28;20175;-45
2022/03/06 00:52:18;;;;;;;4.97;4.57;;;15.30;44.40;16.30;101427.00;;;;5030140;28;20178;-45
2022/03/06 00:54:44;;;;;;;4.83;4.43;;;15.20;44.20;16.30;101429.00;;;;5026874;28;20265;-44
2022/03/06 00:57:09;;;;;;;5.17;4.77;;;15.20;44.20;16.30;101438.00;;;;5032742;28;20194;-46
2022/03/06 00:59:35;;;;;;;5.33;4.93;;;15.20;44.20;16.30;101430.00;;;;5030107;28;20175;-45
2022/03/06 01:02:02;;;;;;;5.00;4.60;;;15.20;44.30;16.30;101433.00;;;;5027981;28;20167;-45
2022/03/06 01:04:28;;;;;;;5.40;4.90;;;15.20;44.40;16.30;101435.00;;;;5026439;28;20218;-46
2022/03/06 01:06:54;;;;;;;4.83;4.43;;;15.10;44.20;16.30;101436.00;;;;5028974;28;20253;-45
2022/03/06 01:09:19;;;;;;;4.70;4.30;;;15.10;44.30;16.30;101432.00;;;;5028180;28;20641;-46
2022/03/06 01:11:45;;;;;;;5.50;5.00;;;15.10;44.20;16.30;101431.00;;;;5030202;28;20186;-45
2022/03/06 01:14:11;;;;;;;5.37;4.87;;;15.10;44.30;16.20;101432.00;;;;5031519;28;20195;-44
2022/03/06 01:16:36;;;;;;;5.07;4.67;;;15.10;44.40;16.20;101436.00;;;;5028255;28;20175;-46
2022/03/06 01:19:02;;;;;;;5.17;4.70;;;15.00;44.30;16.20;101443.00;;;;5027324;28;20167;-45
2022/03/06 01:21:28;;;;;;;4.97;4.57;;;15.00;44.20;16.20;101452.00;;;;5027825;28;20517;-46
2022/03/06 01:23:53;;;;;;;5.30;4.80;;;15.00;44.20;16.20;101456.00;;;;5025842;28;20464;-45
2022/03/06 01:26:19;;;;;;;4.63;4.23;;;15.00;44.40;16.10;101449.00;;;;5027301;28;20179;-45
2022/03/06 01:28:45;;;;;;;4.90;4.50;;;15.00;44.30;16.10;101451.00;;;;5030053;28;20233;-46
2022/03/06 01:31:11;;;;;;;4.80;4.40;;;14.90;44.40;16.10;101450.00;;;;5033934;28;20271;-46
2022/03/06 01:33:36;;;;;;;4.80;4.40;;;14.90;44.30;16.10;101442.00;;;;5033636;28;20201;-46
2022/03/06 01:36:03;;;;;;;5.07;4.57;;;14.90;44.20;16.10;101451.00;;;;5033451;28;20174;-46
2022/03/06 01:38:29;;;;;;;5.00;4.60;;;14.90;45.00;16.10;101451.00;;;;5033689;28;20183;-45
2022/03/06 01:40:54;;;;;;;4.80;4.40;;;14.90;44.40;16.10;101453.00;;;;5033223;28;20186;-47
2022/03/06 01:43:20;;;;;;;5.00;4.60;;;14.90;44.40;16.00;101455.00;;;;5033224;28;20202;-45
2022/03/06 01:45:46;;;;;;;5.60;5.10;;;14.90;44.40;16.00;101448.00;;;;5032090;28;20280;-45
2022/03/06 01:48:11;;;;;;;5.10;4.70;;;14.90;44.50;16.00;101453.00;;;;5034220;28;20547;-44
2022/03/06 01:50:37;;;;;;;4.60;4.20;;;14.80;44.30;16.00;101450.00;;;;5034403;28;20179;-45
2022/03/06 01:53:08;;;;;;;5.43;4.93;;;14.80;44.20;16.00;101467.00;;;;5033656;28;20221;-44
2022/03/06 01:55:34;;;;;;;5.10;4.70;;;14.80;44.30;16.00;101464.00;;;;5036231;28;20212;-45
2022/03/06 01:58:02;;;;;;;5.17;4.77;;;14.80;44.50;16.00;101457.00;;;;5033865;28;20690;-45
2022/03/06 02:00:38;;;;;;;5.10;4.70;;;14.80;44.30;15.90;101453.00;;;;5033574;28;20167;-46
2022/03/06 02:03:04;;;;;;;5.10;4.67;;;14.80;44.30;15.90;101463.00;;;;5034422;28;20163;-46
2022/03/06 02:05:29;;;;;;;5.00;4.60;;;14.70;44.40;15.90;101455.00;;;;5033980;28;20171;-45
2022/03/06 02:07:55;;;;;;;5.40;4.97;;;14.70;44.40;15.90;101455.00;;;;5034667;28;20629;-44
2022/03/06 02:10:22;;;;;;;5.00;4.60;;;14.70;44.50;15.90;101452.00;;;;5034508;28;20226;-46
2022/03/06 02:12:48;;;;;;;4.83;4.43;;;14.70;44.40;15.90;101456.00;;;;5034670;28;20178;-45
2022/03/06 02:15:15;;;;;;;5.10;4.70;;;14.70;44.40;15.90;101456.00;;;;5037334;28;20206;-45
2022/03/06 02:17:41;;;;;;;5.07;4.67;;;14.70;44.60;15.90;101457.00;;;;5036735;28;20173;-46
2022/03/06 02:20:12;;;;;;;4.87;4.47;;;14.70;44.60;15.90;101464.00;;;;5031752;28;20179;-46
2022/03/06 02:22:40;;;;;;;5.33;4.87;;;14.60;44.60;15.80;101452.00;;;;5034226;28;20198;-43
2022/03/06 02:25:18;;;;;;;4.97;4.53;;;14.60;44.60;15.80;101459.00;;;;5032246;28;20407;-45
2022/03/06 02:27:44;;;;;;;5.30;4.90;;;14.60;44.70;15.80;101453.00;;;;5032629;28;20159;-45
2022/03/06 02:30:14;;;;;;;4.93;4.53;;;14.60;44.80;15.80;101462.00;;;;5038797;28;20533;-45
2022/03/06 02:32:40;;;;;;;5.10;4.70;;;14.60;44.80;15.70;101457.00;;;;5033193;28;20613;-44
2022/03/06 02:35:07;;;;;;;5.43;4.93;;;14.50;44.70;15.70;101459.00;;;;5032165;28;20248;-45
2022/03/06 02:37:33;;;;;;;5.43;4.93;;;14.50;44.70;15.70;101460.00;;;;5032531;28;20198;-45
2022/03/06 02:40:00;;;;;;;5.47;4.97;;;14.50;44.80;15.70;101454.00;;;;5031652;28;20179;-45
2022/03/06 02:42:31;;;;;;;5.17;4.73;;;14.50;44.90;15.70;101458.00;;;;5028193;28;20602;-45
2022/03/06 02:44:58;;;;;;;5.10;4.70;;;14.50;44.80;15.70;101448.00;;;;5029534;28;20253;-46
2022/03/06 02:47:24;;;;;;;5.10;4.70;;;14.40;44.70;15.70;101383.00;;;;5029664;28;20179;-46
2022/03/06 02:49:51;;;;;;;4.80;4.40;;;14.40;44.80;15.60;101464.00;;;;5029731;28;20159;-45
2022/03/06 02:52:17;;;;;;;5.27;4.77;;;14.40;44.80;15.60;101447.00;;;;5029693;28;20659;-46
2022/03/06 02:54:43;;;;;;;4.90;4.50;;;14.40;44.70;15.60;101454.00;;;;5028630;28;20190;-46
2022/03/06 02:57:08;;;;;;;5.13;4.73;;;14.40;44.70;15.60;101456.00;;;;5029041;28;20191;-45
2022/03/06 02:59:34;;;;;;;5.33;4.80;;;14.40;44.70;15.60;101464.00;;;;5029017;28;20419;-46
2022/03/06 03:02:00;;;;;;;4.83;4.43;;;14.40;44.80;15.50;101460.00;;;;5037543;28;20187;-45
2022/03/06 03:04:26;;;;;;;5.23;4.80;;;14.40;44.70;15.50;101455.00;;;;5035959;28;20199;-45
2022/03/06 03:06:52;;;;;;;5.20;4.80;;;14.30;44.70;15.50;101449.00;;;;5027421;28;20175;-44
2022/03/06 03:09:19;;;;;;;5.20;4.80;;;14.30;44.70;15.50;101450.00;;;;5029127;28;20167;-44
2022/03/06 03:11:46;;;;;;;5.03;4.57;;;14.40;44.70;15.50;101448.00;;;;5028400;28;20191;-45
2022/03/06 03:14:12;;;;;;;4.87;4.47;;;14.30;44.60;15.50;101456.00;;;;5028495;28;20285;-45
2022/03/06 03:16:38;;;;;;;4.80;4.40;;;14.30;44.60;15.50;101454.00;;;;5028424;28;20274;-44
2022/03/06 03:19:04;;;;;;;5.13;4.73;;;14.30;44.50;15.40;101455.00;;;;5029058;28;20186;-45
2022/03/06 03:21:29;;;;;;;4.93;4.53;;;14.30;44.40;15.40;101468.00;;;;5028327;28;20551;-45
2022/03/06 03:23:55;;;;;;;5.00;4.60;;;14.30;44.50;15.40;101461.00;;;;5028846;28;20198;-44
2022/03/06 03:26:21;;;;;;;5.00;4.60;;;14.30;44.60;15.40;101458.00;;;;5028658;28;20167;-44
2022/03/06 03:28:46;;;;;;;5.00;4.60;;;14.30;44.40;15.40;101467.00;;;;5028339;28;20254;-46
2022/03/06 03:31:12;;;;;;;5.23;4.77;;;14.20;44.40;15.40;101466.00;;;;5028450;28;20186;-45
2022/03/06 03:33:38;;;;;;;5.43;4.93;;;14.20;44.40;15.30;101465.00;;;;5033564;28;20198;-44
2022/03/06 03:36:04;;;;;;;4.83;4.43;;;14.20;44.40;15.30;101469.00;;;;5030670;28;20183;-45
2022/03/06 03:38:30;;;;;;;4.87;4.47;;;14.20;44.50;15.30;101469.00;;;;5028127;28;20186;-44
2022/03/06 03:40:55;;;;;;;5.10;4.70;;;14.20;44.50;15.30;101455.00;;;;5028505;28;20175;-45
2022/03/06 03:43:22;;;;;;;4.70;4.30;;;14.20;44.50;15.30;101468.00;;;;5027729;28;20217;-46
2022/03/06 03:45:49;;;;;;;5.00;4.60;;;14.10;44.30;15.30;101481.00;;;;5028272;28;20175;-46
2022/03/06 03:48:14;;;;;;;5.20;4.80;;;14.10;44.30;15.30;101474.00;;;;5027786;28;20709;-46
2022/03/06 03:50:40;;;;;;;5.33;4.83;;;14.10;44.30;15.20;101474.00;;;;5027721;28;20171;-44
2022/03/06 03:53:06;;;;;;;4.77;4.37;;;14.10;44.30;15.00;101485.00;;;;5029136;28;20187;-43
2022/03/06 03:55:31;;;;;;;5.60;5.10;;;14.10;44.30;15.00;101472.00;;;;5028336;28;20648;-44
2022/03/06 03:57:57;;;;;;;5.10;4.60;;;14.10;44.30;15.20;101468.00;;;;5027851;28;20187;-44
2022/03/06 04:00:23;;;;;;;4.90;4.50;;;14.10;44.50;15.20;101469.00;;;;5028481;28;20182;-44
2022/03/06 04:02:49;;;;;;;5.60;5.10;;;14.10;44.50;15.20;101472.00;;;;5028042;28;20186;-44
2022/03/06 04:05:14;;;;;;;5.17;4.77;;;14.10;44.60;15.10;101468.00;;;;5027167;28;20203;-47
2022/03/06 04:07:40;;;;;;;4.90;4.50;;;14.00;44.40;15.10;101475.00;;;;5027916;28;20197;-46
2022/03/06 04:10:06;;;;;;;5.10;4.70;;;14.00;44.50;15.10;101483.00;;;;5029615;28;20183;-46
2022/03/06 04:12:31;;;;;;;5.33;4.83;;;14.00;44.60;15.10;101478.00;;;;5026773;28;20232;-43
2022/03/06 04:14:57;;;;;;;5.33;4.50;;;13.90;44.40;15.10;101475.00;;;;5025647;28;20194;-45
2022/03/06 04:17:23;;;;;;;4.90;4.50;;;13.90;44.40;15.10;101449.00;;;;5034054;28;20179;-48
2022/03/06 04:19:49;;;;;;;5.10;4.70;;;13.90;44.50;15.10;101476.00;;;;5032322;28;20201;-45
2022/03/06 04:22:14;;;;;;;4.73;4.33;;;13.90;44.50;15.10;101492.00;;;;5029853;28;20171;-44
2022/03/06 04:24:40;;;;;;;5.33;4.90;;;13.90;44.40;15.00;101480.00;;;;5028531;28;20268;-45
2022/03/06 04:27:06;;;;;;;4.83;4.43;;;13.90;44.50;15.00;101489.00;;;;5028653;28;20616;-44
2022/03/06 04:29:32;;;;;;;4.63;4.23;;;13.90;44.60;15.00;101487.00;;;;5027082;28;20167;-45
2022/03/06 04:31:58;;;;;;;4.87;4.47;;;13.90;44.70;15.00;101493.00;;;;5027106;28;20590;-44
2022/03/06 04:34:23;;;;;;;6.00;4.57;;;13.80;44.70;15.00;101498.00;;;;5026511;28;20442;-46
2022/03/06 04:36:49;;;;;;;5.43;4.93;;;13.90;44.80;15.00;101495.00;;;;5026872;28;20182;-45
2022/03/06 04:39:15;;;;;;;5.03;4.50;;;13.90;44.60;14.90;101493.00;;;;5026781;28;20179;-46
2022/03/06 04:41:40;;;;;;;5.00;4.50;;;13.80;44.60;14.90;101506.00;;;;5025936;28;20791;-45
2022/03/06 04:44:06;;;;;;;5.30;4.80;;;13.80;45.10;14.90;101499.00;;;;5026002;28;20207;-45
2022/03/06 04:46:32;;;;;;;5.33;4.83;;;13.80;45.10;14.90;101497.00;;;;5027844;28;20171;-44
2022/03/06 04:48:58;;;;;;;4.93;4.47;;;13.80;45.50;14.90;101504.00;;;;5026596;28;20194;-44
2022/03/06 04:51:23;;;;;;;4.37;4.07;;;13.80;45.50;14.90;101499.00;;;;5029994;28;20172;-46
2022/03/06 04:53:49;;;;;;;4.77;4.37;;;13.70;45.40;14.80;101509.00;;;;5034107;28;20445;-45
2022/03/06 04:56:15;;;;;;;4.70;4.30;;;13.70;45.30;14.80;101506.00;;;;5030209;28;20171;-45
2022/03/06 04:58:41;;;;;;;6.00;4.77;;;13.70;45.30;14.80;101502.00;;;;5029760;28;20203;-46
2022/03/06 05:01:07;;;;;;;4.77;4.37;;;13.70;45.30;14.80;101513.00;;;;5028148;28;20178;-44
2022/03/06 05:03:33;;;;;;;4.73;4.33;;;13.60;45.20;14.80;101518.00;;;;5025840;28;20199;-45
2022/03/06 05:05:58;;;;;;;4.70;4.30;;;13.70;46.10;14.70;101512.00;;;;5023312;28;20234;-46
2022/03/06 05:08:26;;;;;;;5.40;4.90;;;13.70;45.40;14.70;101502.00;;;;5019120;28;20262;-45
2022/03/06 05:10:53;;;;;;;4.80;4.40;;;13.70;45.30;14.70;101509.00;;;;5010194;28;20560;-46
2022/03/06 05:13:20;;;;;;;4.70;4.20;;;13.60;45.50;14.70;101459.00;;;;5009844;28;20218;-44
2022/03/06 05:15:45;;;;;;;4.90;4.50;;;13.60;45.40;14.70;101510.00;;;;5009480;28;20238;-48
2022/03/06 05:18:11;;;;;;;6.40;4.77;;;13.60;45.40;14.70;101517.00;;;;5007988;28;20171;-44
2022/03/06 05:20:37;;;;;;;4.73;4.33;;;13.60;45.40;14.70;101513.00;;;;5006663;28;20171;-45
2022/03/06 05:23:03;;;;;;;5.90;4.20;;;13.60;45.30;14.40;101509.00;;;;5024623;28;20178;-44
2022/03/06 05:25:29;;;;;;;5.10;4.70;;;13.60;45.20;14.70;101500.00;;;;5012626;28;20180;-44
2022/03/06 05:27:54;;;;;;;6.20;4.00;;;13.60;45.20;14.60;101497.00;;;;5009773;28;20195;-46
2022/03/06 05:30:20;;;;;;;4.60;4.20;;;13.60;45.30;14.60;101511.00;;;;5008844;28;20193;-45
2022/03/06 05:32:46;;;;;;;4.50;4.13;;;13.50;45.10;14.60;101512.00;;;;5009151;28;20175;-44
2022/03/06 05:35:12;;;;;;;4.50;4.10;;;13.50;45.10;14.60;101506.00;;;;5009209;28;20222;-45
2022/03/06 05:37:38;;;;;;;4.73;4.33;;;13.50;45.20;14.60;101511.00;;;;5007807;28;20534;-44
2022/03/06 05:40:05;;;;;;;4.40;4.00;;;13.50;45.20;14.60;101500.00;;;;5005735;28;20186;-45
2022/03/06 05:42:31;;;;;;;4.70;4.30;;;13.50;45.20;14.60;101503.00;;;;5006399;28;20179;-46
2022/03/06 05:44:56;;;;;;;4.60;4.20;;;13.40;45.00;14.60;101513.00;;;;5006137;28;20696;-45
2022/03/06 05:47:22;;;;;;;4.83;4.30;;;13.40;45.10;14.50;101514.00;;;;5009217;28;20267;-45
2022/03/06 05:49:48;;;;;;;5.10;4.33;;;13.40;45.10;14.50;101512.00;;;;5008957;28;20497;-46
2022/03/06 05:52:13;;;;;;;4.30;3.83;;;13.40;45.10;14.50;101524.00;;;;5009067;28;20182;-45
2022/03/06 05:54:39;;;;;;;4.67;4.27;;;13.40;45.10;14.50;101520.00;;;;5008426;28;20184;-45
2022/03/06 05:57:06;;;;;;;4.50;4.10;;;13.40;45.10;14.50;101524.00;;;;5008154;28;20293;-46
2022/03/06 05:59:32;;;;;;;5.00;4.50;;;13.40;45.00;14.50;101531.00;;;;5006415;28;20178;-45
2022/03/06 06:01:57;;;;;;;4.30;3.90;;;13.30;45.10;14.50;101522.00;;;;5008420;28;20183;-45
2022/03/06 06:04:23;;;;;;;4.80;4.40;;;13.30;45.10;14.50;101528.00;;;;5008810;28;20203;-44
2022/03/06 06:06:50;;;;;;;4.63;4.23;;;13.30;45.10;14.40;101530.00;;;;5013530;28;20186;-46
2022/03/06 06:09:16;;;;;;;4.53;4.13;;;13.30;45.10;14.40;101534.00;;;;5012133;28;20156;-44
2022/03/06 06:11:41;;;;;;;4.47;4.07;;;13.30;45.00;14.40;101536.00;;;;5020067;28;20870;-46
2022/03/06 06:14:07;;;;;;;4.40;4.00;;;13.30;45.00;14.40;101545.00;;;;5029076;28;20226;-47
2022/03/06 06:16:33;;;;;;;4.57;4.17;;;13.30;45.00;14.40;101548.00;;;;5032384;28;20179;-46
2022/03/06 06:18:58;;;;;;;4.40;4.00;;;13.30;45.00;14.40;101556.00;;;;5030149;28;20202;-44
2022/03/06 06:21:24;;;;;;;4.73;4.33;;;13.20;45.00;14.40;101548.00;;;;5029204;28;20183;-43
2022/03/06 06:23:50;;;;;;;4.80;4.40;;;13.30;45.10;14.40;101558.00;;;;5031717;28;20811;-45
2022/03/06 06:26:16;;;;;;;4.43;4.03;;;13.20;45.10;14.30;101558.00;;;;5032281;28;20171;-44
2022/03/06 06:28:42;;;;;;;4.47;4.13;;;13.20;45.10;14.30;101554.00;;;;5032321;28;20171;-45
2022/03/06 06:31:07;;;;;;;4.70;4.30;;;13.20;45.10;14.30;101559.00;;;;5031431;28;20181;-45
2022/03/06 06:33:34;;;;;;;4.77;4.37;;;13.20;45.10;14.30;101565.00;;;;5029182;28;20730;-44
2022/03/06 06:36:00;;;;;;;4.50;4.10;;;13.20;45.10;14.20;101506.00;;;;5031823;28;20171;-44
2022/03/06 06:38:26;;;;;;;4.60;4.20;;;13.20;45.10;14.20;101565.00;;;;5029907;28;20190;-45
2022/03/06 06:40:52;;;;;;;4.33;3.93;;;13.10;45.10;14.20;101575.00;;;;5031409;28;20175;-44
2022/03/06 06:43:18;;;;;;;4.60;4.20;;;13.10;45.00;14.20;101576.00;;;;5031462;28;20223;-45
2022/03/06 06:45:44;;;;;;;4.53;4.13;;;13.10;44.90;14.20;101580.00;;;;5032663;28;20167;-44
2022/03/06 06:48:09;;;;;;;4.77;4.37;;;13.10;45.00;14.20;101574.00;;;;5032188;28;20167;-45
2022/03/06 06:50:35;;;;;;;4.63;4.23;;;13.10;45.10;14.10;101586.00;;;;5031913;28;20167;-45
2022/03/06 06:53:01;;;;;;;4.70;4.30;;;13.10;45.20;14.10;101601.00;;;;5031673;28;20193;-45
2022/03/06 06:55:26;;;;;;;4.60;4.20;;;13.10;45.30;14.10;101582.00;;;;5031180;28;20205;-45
2022/03/06 06:57:52;;;;;;;4.27;3.87;;;13.30;45.30;14.20;101581.00;;;;5031853;28;20683;-46
2022/03/06 07:00:18;;;;;;;4.63;4.23;;;13.50;45.10;14.20;101602.00;;;;5031483;28;20552;-44
2022/03/06 07:02:44;;;;;;;4.60;4.20;;;13.60;45.00;14.30;101592.00;;;;5030055;28;20178;-45
2022/03/06 07:05:10;;;;;;;4.60;4.20;;;13.70;45.30;14.30;101606.00;;;;5028691;28;20191;-45
2022/03/06 07:07:36;;;;;;;4.23;3.93;;;13.70;45.00;14.40;101594.00;;;;5032740;28;20707;-45
2022/03/06 07:10:06;;;;;;;4.33;4.00;;;13.80;44.90;14.40;101590.00;;;;5028128;28;20198;-44
2022/03/06 07:12:48;;;;;;;4.30;3.90;;;13.80;44.90;14.50;101606.00;;;;5030851;28;20167;-44
2022/03/06 07:15:14;;;;;;;4.33;3.93;;;13.80;44.90;14.50;101602.00;;;;5029925;28;20219;-46
2022/03/06 07:17:40;;;;;;;4.50;4.10;;;13.90;44.90;14.50;101602.00;;;;5032488;28;20171;-45
2022/03/06 07:20:07;;;;;;;4.60;4.20;;;13.90;44.90;14.50;101613.00;;;;5024404;28;20383;-44
2022/03/06 07:22:33;;;;;;;4.47;4.07;;;13.80;45.00;14.50;101608.00;;;;5014701;28;20290;-45
2022/03/06 07:24:59;;;;;;;4.53;4.13;;;13.80;45.10;14.50;101607.00;;;;5011283;28;20749;-45
2022/03/06 07:27:25;;;;;;;4.60;4.20;;;13.80;45.10;14.50;101626.00;;;;5010308;28;20178;-45
2022/03/06 07:29:50;;;;;;;4.77;4.37;;;13.80;45.10;14.30;101628.00;;;;5019980;28;20776;-45
2022/03/06 07:32:16;;;;;;;4.30;4.00;;;13.80;45.10;14.50;101632.00;;;;5019146;28;20263;-45
2022/03/06 07:34:42;;;;;;;4.37;3.97;;;13.80;45.10;14.50;101635.00;;;;5013373;28;20192;-46
2022/03/06 07:37:08;;;;;;;4.10;3.80;;;13.80;45.40;14.60;101639.00;;;;5014753;28;20195;-45
2022/03/06 07:39:34;;;;;;;4.70;4.30;;;13.80;45.50;14.60;101631.00;;;;5011569;28;20172;-45
2022/03/06 07:41:59;;;;;;;4.80;4.40;;;13.80;45.60;14.60;101565.00;;;;5010741;28;20178;-44
2022/03/06 07:44:25;;;;;;;4.93;3.97;;;13.80;45.70;14.50;101635.00;;;;5010615;28;20196;-45
2022/03/06 07:46:51;;;;;;;4.53;4.13;;;13.80;45.80;14.50;101643.00;;;;5012890;28;20184;-43
2022/03/06 07:49:16;;;;;;;4.60;4.20;;;13.70;45.90;14.50;101644.00;;;;5010345;28;20182;-45
2022/03/06 07:51:42;;;;;;;4.40;3.90;;;13.70;46.20;14.50;101641.00;;;;5010756;28;20182;-44
2022/03/06 07:54:13;;;;;;;4.33;3.93;;;13.70;46.40;14.50;101645.00;;;;5010962;28;20188;-44
2022/03/06 07:56:39;;;;;;;5.50;4.07;;;13.70;46.60;14.50;101647.00;;;;5011450;28;20241;-45
2022/03/06 07:59:04;;;;;;;4.47;4.07;;;13.70;46.60;14.50;101649.00;;;;5010570;28;20175;-46
2022/03/06 08:01:30;;;;;;;7.53;4.40;;;13.60;46.50;14.50;101651.00;;;;5017312;28;20782;-46
2022/03/06 08:03:56;;;;;;;5.27;4.37;;;13.60;46.60;14.50;101647.00;;;;5018626;28;20199;-46
2022/03/06 08:06:23;;;;;;;4.40;4.00;;;13.60;46.60;14.50;101648.00;;;;5019993;28;20183;-44
2022/03/06 08:08:48;;;;;;;5.20;4.23;;;13.60;46.50;14.50;101652.00;;;;5026072;28;20232;-44
2022/03/06 08:11:14;;;;;;;4.43;4.03;;;13.50;46.40;14.40;101655.00;;;;5029030;28;20159;-45
2022/03/06 08:13:40;;;;;;;4.40;4.00;;;13.50;46.50;14.40;101651.00;;;;5030137;28;20191;-45
2022/03/06 08:16:06;;;;;;;4.23;3.90;;;13.50;46.50;14.40;101653.00;;;;5031377;28;20977;-45
2022/03/06 08:18:32;;;;;;;4.63;4.23;;;13.50;46.60;14.40;101654.00;;;;5030506;28;20167;-45
2022/03/06 08:20:58;;;;;;;4.57;4.20;;;13.50;46.60;14.40;101655.00;;;;5027420;28;20254;-44
2022/03/06 08:23:23;;;;;;;4.47;4.07;;;13.50;46.60;14.40;101653.00;;;;5028057;28;20201;-45
2022/03/06 08:25:49;;;;;;;3.97;3.67;;;13.50;46.60;14.30;101654.00;;;;5028564;28;20171;-46
2022/03/06 08:28:15;;;;;;;4.37;4.00;;;13.50;46.60;14.30;101653.00;;;;5029992;28;20659;-44
2022/03/06 08:30:40;;;;;;;4.13;3.83;;;13.40;46.50;14.30;101654.00;;;;5030607;28;20197;-44
2022/03/06 08:33:06;;;;;;;4.70;4.00;;;13.40;46.50;14.30;101651.00;;;;5028656;28;20155;-44
2022/03/06 08:35:32;;;;;;;5.13;4.00;;;13.40;46.60;14.30;101651.00;;;;5028286;28;20186;-44
2022/03/06 08:37:58;;;;;;;4.37;4.03;;;13.40;46.60;14.30;101652.00;;;;5029087;28;20656;-45
2022/03/06 08:40:24;;;;;;;4.70;4.30;;;13.40;46.60;14.30;101658.00;;;;5029002;28;20283;-45
2022/03/06 08:42:50;;;;;;;4.90;4.10;;;13.30;46.60;14.20;101662.00;;;;5032520;28;20786;-46
2022/03/06 08:45:15;;;;;;;4.20;3.90;;;13.40;46.60;14.20;101662.00;;;;5029528;28;20211;-45
2022/03/06 08:47:41;;;;;;;4.67;4.27;;;13.30;46.60;14.20;101662.00;;;;5030421;28;20178;-44
2022/03/06 08:50:07;;;;;;;5.20;3.97;;;13.30;46.70;14.20;101661.00;;;;5029726;28;20531;-44
2022/03/06 08:52:33;;;;;;;5.17;4.20;;;13.40;46.80;14.30;101661.00;;;;5023847;28;20167;-46
2022/03/06 08:54:59;;;;;;;5.10;4.67;;;13.60;47.00;14.30;101660.00;;;;5029652;28;20194;-45
2022/03/06 08:57:25;;;;;;;5.80;4.10;;;13.80;46.60;14.40;101665.00;;;;5029262;28;20187;-45
2022/03/06 08:59:50;;;;;;;6.07;4.00;;;13.90;46.30;14.50;101666.00;;;;5030261;28;20185;-46
2022/03/06 09:02:16;;;;;;;4.70;4.30;;;14.00;46.20;14.60;101656.00;;;;5030065;28;20590;-44
2022/03/06 09:04:42;;;;;;;8.13;4.07;;;14.10;46.20;14.60;101661.00;;;;5024878;28;20439;-47
2022/03/06 09:07:08;;;;;;;5.17;3.83;;;14.20;46.30;14.60;101671.00;;;;5013879;28;20245;-46
2022/03/06 09:09:33;;;;;;;4.07;3.67;;;14.20;46.30;14.70;101656.00;;;;5032544;28;20163;-47
2022/03/06 09:11:59;;;;;;;7.20;4.20;;;14.30;46.30;14.80;101667.00;;;;5033227;28;20570;-46
2022/03/06 09:14:25;;;;;;;6.37;3.90;;;14.40;47.30;14.80;101660.00;;;;5036287;28;20683;-46
2022/03/06 09:16:50;;;;;;;4.47;4.03;;;14.50;47.70;14.90;101664.00;;;;5036411;28;20179;-46
2022/03/06 09:19:16;;;;;;;4.30;3.90;;;14.50;48.30;14.90;101662.00;;;;5034167;28;20174;-46
2022/03/06 09:21:43;;;;;;;6.77;4.27;;;14.60;49.00;15.00;101665.00;;;;5033890;28;20178;-48
2022/03/06 09:24:09;;;;;;;6.53;4.30;;;14.60;49.10;15.10;101661.00;;;;5033950;28;20202;-44
2022/03/06 09:26:35;;;;;;;4.77;4.23;;;14.70;49.10;15.10;101666.00;;;;5031455;28;20200;-45
2022/03/06 09:29:01;;;;;;;6.70;4.40;;;14.70;49.20;15.20;101670.00;;;;5023185;28;20249;-46
2022/03/06 09:31:27;;;;;;;5.77;4.00;;;14.70;48.90;15.20;101668.00;;;;5033747;28;20483;-46
2022/03/06 09:33:53;;;;;;;5.43;4.20;;;14.70;48.60;15.20;101668.00;;;;5033895;28;20187;-46
2022/03/06 09:36:18;;;;;;;4.93;4.30;;;14.70;48.30;15.30;101670.00;;;;5033575;28;20193;-44
2022/03/06 09:38:44;;;;;;;6.53;4.57;;;14.70;48.00;15.30;101670.00;;;;5033784;28;20171;-47
2022/03/06 09:41:15;;;;;;;4.97;4.40;;;14.70;47.80;15.30;101676.00;;;;5033378;28;20410;-46
2022/03/06 09:43:40;;;;;;;4.67;4.27;;;14.80;47.60;15.30;101657.00;;;;5032535;28;20253;-44
2022/03/06 09:46:07;;;;;;;6.43;4.60;;;14.80;47.40;15.40;101675.00;;;;5032853;28;20177;-47
2022/03/06 09:48:32;;;;;;;4.97;4.47;;;14.90;47.20;15.40;101662.00;;;;5032568;28;20167;-48
2022/03/06 09:51:00;;;;;;;5.07;4.30;;;14.90;47.10;15.40;101666.00;;;;5037140;28;20185;-45
2022/03/06 09:53:25;;;;;;;5.87;4.87;;;14.80;46.80;15.40;101663.00;;;;5036614;28;20190;-45
2022/03/06 09:55:51;;;;;;;5.30;4.80;;;14.90;46.70;15.50;101660.00;;;;5037648;28;20163;-46
2022/03/06 09:58:17;;;;;;;5.30;4.80;;;14.90;46.60;15.50;101664.00;;;;5038239;28;20552;-46
2022/03/06 10:00:42;;;;;;;4.90;4.50;;;15.00;46.70;15.50;101667.00;;;;5037310;28;20166;-46
2022/03/06 10:03:19;;;;;;;5.73;4.67;;;15.00;46.60;15.50;101662.00;;;;5037037;28;20209;-46
2022/03/06 10:05:45;;;;;;;7.07;4.63;;;15.00;46.70;15.60;101663.00;;;;5034189;28;20206;-46
2022/03/06 10:08:27;;;;;;;5.57;4.20;;;15.00;46.70;15.60;101661.00;;;;5037566;28;20225;-46
2022/03/06 10:11:01;;;;;;;4.37;3.97;;;15.10;46.70;15.60;101651.00;;;;5039675;28;20160;-47
2022/03/06 10:13:40;;;;;;;5.40;4.57;;;15.10;46.70;15.70;101660.00;;;;5038119;28;20774;-46
2022/03/06 10:16:17;;;;;;;4.73;4.33;;;15.10;46.80;15.70;101659.00;;;;5037062;28;20233;-45
2022/03/06 10:18:49;;;;;;;7.90;4.33;;;15.20;46.80;15.70;101653.00;;;;5037059;28;20163;-46
2022/03/06 10:21:35;;;;;;;5.80;4.50;;;15.20;46.90;15.70;101658.00;;;;5042466;28;20349;-49
2022/03/06 10:24:08;;;;;;;5.73;4.50;;;15.20;46.90;15.80;101659.00;;;;5036071;28;20199;-46
2022/03/06 10:26:35;;;;;;;6.13;4.33;;;15.30;46.90;15.80;101586.00;;;;5035486;28;20246;-48
2022/03/06 10:29:04;;;;;;;5.00;4.50;;;15.40;47.00;15.80;101665.00;;;;5035653;28;20610;-46
2022/03/06 10:31:33;;;;;;;5.00;4.10;;;15.30;46.90;15.90;101655.00;;;;5037966;28;20163;-46
2022/03/06 10:34:04;;;;;;;5.73;4.17;;;15.40;47.10;15.90;101658.00;;;;5037314;28;20191;-47
2022/03/06 10:36:39;;;;;;;4.60;4.10;;;15.40;47.10;15.90;101666.00;;;;5032847;28;20265;-45
2022/03/06 10:39:12;;;;;;;6.10;4.20;;;15.40;47.30;16.00;101667.00;;;;5032418;28;20162;-46
2022/03/06 10:41:41;;;;;;;4.70;4.20;;;15.50;47.20;16.00;101662.00;;;;5032285;28;20250;-46
2022/03/06 10:44:08;;;;;;;5.60;3.97;;;15.50;47.90;16.00;101660.00;;;;5032201;28;20286;-46